NKS833 KJAX-KORD
Flight info
| Callsign | NKS833 |
|---|---|
| Flight time | 2h 6m |
| Altitude | 38000 |
| Route | BRSTL1 ALLMA DCT THRSR Q118 KAILL/N0446F390 Q118 VOSTK/N0449F380 Q118 BONNT VEECK5 |
| Aircraft | A20N/M-SDE2E3FGHIRWXY/LB1 |
Departure
| Time | 2026-05-07 23:47 |
|---|---|
| Airport | Jacksonville International Airport (KJAX) |
Arrival
| Time | 2026-05-08 01:53 |
|---|---|
| Airport | Chicago O'Hare International Airport (KORD) |
| Time | Latitude | Longitude | Altitude | Speed | Heading |
|---|---|---|---|---|---|
| 2026-05-07 23:37 | 30.49409 | -81.68552 | 39 ft | 0 kts | 200° |
| 2026-05-07 23:41 | 30.49412 | -81.68551 | 39 ft | 2 kts | 200° |
| 2026-05-07 23:41 | 30.49430 | -81.68545 | 37 ft | 3 kts | 190° |
| 2026-05-07 23:41 | 30.49448 | -81.68540 | 37 ft | 3 kts | 199° |
| 2026-05-07 23:41 | 30.49465 | -81.68531 | 38 ft | 3 kts | 226° |
| 2026-05-07 23:42 | 30.49476 | -81.68512 | 36 ft | 2 kts | 260° |
| 2026-05-07 23:42 | 30.49477 | -81.68504 | 38 ft | 0 kts | 266° |
| 2026-05-07 23:43 | 30.49477 | -81.68507 | 38 ft | 2 kts | 266° |
| 2026-05-07 23:43 | 30.49478 | -81.68528 | 37 ft | 1 kts | 296° |
| 2026-05-07 23:43 | 30.49488 | -81.68528 | 37 ft | 2 kts | 351° |
| 2026-05-07 23:44 | 30.49532 | -81.68521 | 37 ft | 11 kts | 10° |
| 2026-05-07 23:44 | 30.49646 | -81.68498 | 35 ft | 22 kts | 9° |
| 2026-05-07 23:44 | 30.49803 | -81.68464 | 35 ft | 14 kts | 12° |
| 2026-05-07 23:44 | 30.49916 | -81.68434 | 35 ft | 16 kts | 30° |
| 2026-05-07 23:45 | 30.49967 | -81.68297 | 36 ft | 22 kts | 70° |
| 2026-05-07 23:45 | 30.50024 | -81.68106 | 38 ft | 29 kts | 71° |
| 2026-05-07 23:45 | 30.50097 | -81.67857 | 37 ft | 36 kts | 70° |
| 2026-05-07 23:45 | 30.50193 | -81.67559 | 32 ft | 42 kts | 71° |
| 2026-05-07 23:46 | 30.50295 | -81.67224 | 31 ft | 44 kts | 68° |
| 2026-05-07 23:46 | 30.50361 | -81.67101 | 33 ft | 10 kts | 354° |
| 2026-05-07 23:46 | 30.50437 | -81.67132 | 32 ft | 14 kts | 339° |
| 2026-05-07 23:46 | 30.50481 | -81.67207 | 31 ft | 13 kts | 247° |
| 2026-05-07 23:47 | 30.50397 | -81.67475 | 31 ft | 68 kts | 251° |
| 2026-05-07 23:47 | 30.50167 | -81.68215 | 38 ft | 124 kts | 250° |
| 2026-05-07 23:47 | 30.49827 | -81.69319 | 138 ft | 158 kts | 250° |
| 2026-05-07 23:47 | 30.49452 | -81.70521 | 669 ft | 161 kts | 249° |
| 2026-05-07 23:48 | 30.49050 | -81.71762 | 1268 ft | 167 kts | 249° |
| 2026-05-07 23:48 | 30.48656 | -81.72985 | 2234 ft | 161 kts | 250° |
| 2026-05-07 23:48 | 30.48250 | -81.74268 | 2753 ft | 181 kts | 250° |
| 2026-05-07 23:48 | 30.47962 | -81.75219 | 3043 ft | 196 kts | 254° |
| 2026-05-07 23:49 | 30.48002 | -81.76865 | 3581 ft | 218 kts | 287° |
| 2026-05-07 23:49 | 30.48911 | -81.78364 | 4181 ft | 243 kts | 317° |
| 2026-05-07 23:49 | 30.50511 | -81.79239 | 4842 ft | 267 kts | 342° |
| 2026-05-07 23:49 | 30.52367 | -81.79558 | 5774 ft | 272 kts | 348° |
| 2026-05-07 23:50 | 30.54248 | -81.79815 | 6704 ft | 273 kts | 347° |
| 2026-05-07 23:50 | 30.56133 | -81.80166 | 7533 ft | 276 kts | 344° |
| 2026-05-07 23:50 | 30.58018 | -81.80618 | 8362 ft | 278 kts | 342° |
| 2026-05-07 23:50 | 30.59915 | -81.81137 | 9187 ft | 282 kts | 341° |
| 2026-05-07 23:51 | 30.61825 | -81.81690 | 10016 ft | 284 kts | 340° |
| 2026-05-07 23:51 | 30.63781 | -81.82269 | 10511 ft | 300 kts | 340° |
| 2026-05-07 23:51 | 30.65886 | -81.82898 | 10733 ft | 324 kts | 341° |
| 2026-05-07 23:51 | 30.68128 | -81.83563 | 11126 ft | 338 kts | 341° |
| 2026-05-07 23:52 | 30.70420 | -81.84231 | 11868 ft | 341 kts | 341° |
| 2026-05-07 23:52 | 30.72735 | -81.84904 | 12605 ft | 345 kts | 341° |
| 2026-05-07 23:52 | 30.75079 | -81.85587 | 13332 ft | 349 kts | 341° |
| 2026-05-07 23:52 | 30.77447 | -81.86280 | 14018 ft | 353 kts | 340° |
| 2026-05-07 23:53 | 30.79832 | -81.86978 | 14697 ft | 355 kts | 340° |
| 2026-05-07 23:53 | 30.82237 | -81.87683 | 15367 ft | 358 kts | 340° |
| 2026-05-07 23:53 | 30.84660 | -81.88399 | 16024 ft | 360 kts | 338° |
| 2026-05-07 23:53 | 30.87016 | -81.89349 | 16660 ft | 358 kts | 330° |
| 2026-05-07 23:54 | 30.89230 | -81.90644 | 17301 ft | 355 kts | 323° |
| 2026-05-07 23:54 | 30.91341 | -81.92145 | 17947 ft | 357 kts | 322° |
| 2026-05-07 23:54 | 30.93448 | -81.93632 | 18526 ft | 360 kts | 322° |
| 2026-05-07 23:54 | 30.95600 | -81.95144 | 19104 ft | 362 kts | 322° |
| 2026-05-07 23:55 | 30.97752 | -81.96676 | 19655 ft | 363 kts | 320° |
| 2026-05-07 23:55 | 30.99765 | -81.98433 | 20207 ft | 360 kts | 314° |
| 2026-05-07 23:55 | 31.01694 | -82.00312 | 20776 ft | 363 kts | 314° |
| 2026-05-07 23:55 | 31.03644 | -82.02196 | 21332 ft | 365 kts | 314° |
| 2026-05-07 23:56 | 31.05607 | -82.04088 | 21894 ft | 367 kts | 314° |
| 2026-05-07 23:56 | 31.07585 | -82.05995 | 22419 ft | 370 kts | 314° |
| 2026-05-07 23:56 | 31.09575 | -82.07916 | 22958 ft | 373 kts | 314° |
| 2026-05-07 23:56 | 31.11578 | -82.09852 | 23480 ft | 375 kts | 314° |
| 2026-05-07 23:57 | 31.13597 | -82.11805 | 23930 ft | 378 kts | 314° |
| 2026-05-07 23:57 | 31.15625 | -82.13767 | 24380 ft | 380 kts | 313° |
| 2026-05-07 23:57 | 31.17665 | -82.15742 | 24824 ft | 382 kts | 313° |
| 2026-05-07 23:57 | 31.19713 | -82.17726 | 25252 ft | 384 kts | 313° |
| 2026-05-07 23:58 | 31.21774 | -82.19725 | 25678 ft | 386 kts | 313° |
| 2026-05-07 23:58 | 31.23842 | -82.21731 | 26105 ft | 387 kts | 313° |
| 2026-05-07 23:58 | 31.25919 | -82.23747 | 26526 ft | 389 kts | 313° |
| 2026-05-07 23:58 | 31.28006 | -82.25775 | 26934 ft | 391 kts | 313° |
| 2026-05-07 23:59 | 31.30101 | -82.27811 | 27337 ft | 392 kts | 313° |
| 2026-05-07 23:59 | 31.32201 | -82.29853 | 27723 ft | 394 kts | 313° |
| 2026-05-07 23:59 | 31.34315 | -82.31909 | 28108 ft | 395 kts | 312° |
| 2026-05-07 23:59 | 31.36403 | -82.33943 | 28497 ft | 397 kts | 312° |
| 2026-05-08 00:00 | 31.38527 | -82.36011 | 28853 ft | 398 kts | 312° |
| 2026-05-08 00:00 | 31.40660 | -82.38091 | 29219 ft | 400 kts | 312° |
| 2026-05-08 00:00 | 31.42828 | -82.40206 | 29583 ft | 401 kts | 312° |
| 2026-05-08 00:00 | 31.44948 | -82.42275 | 29938 ft | 403 kts | 312° |
| 2026-05-08 00:01 | 31.47106 | -82.44383 | 30252 ft | 404 kts | 312° |
| 2026-05-08 00:01 | 31.49271 | -82.46499 | 30519 ft | 407 kts | 312° |
| 2026-05-08 00:01 | 31.51452 | -82.48632 | 30788 ft | 409 kts | 311° |
| 2026-05-08 00:01 | 31.53641 | -82.50774 | 31071 ft | 411 kts | 311° |
| 2026-05-08 00:02 | 31.55876 | -82.52883 | 31413 ft | 413 kts | 314° |
| 2026-05-08 00:02 | 31.58169 | -82.54922 | 31786 ft | 414 kts | 314° |
| 2026-05-08 00:02 | 31.60470 | -82.56941 | 32148 ft | 413 kts | 314° |
| 2026-05-08 00:02 | 31.62770 | -82.58968 | 32501 ft | 413 kts | 314° |
| 2026-05-08 00:03 | 31.65053 | -82.60995 | 32859 ft | 412 kts | 313° |
| 2026-05-08 00:03 | 31.67331 | -82.63029 | 33207 ft | 411 kts | 313° |
| 2026-05-08 00:03 | 31.69599 | -82.65061 | 33536 ft | 410 kts | 313° |
| 2026-05-08 00:03 | 31.71863 | -82.67092 | 33861 ft | 409 kts | 313° |
| 2026-05-08 00:04 | 31.74092 | -82.69096 | 34147 ft | 408 kts | 313° |
| 2026-05-08 00:04 | 31.76344 | -82.71121 | 34452 ft | 407 kts | 313° |
| 2026-05-08 00:04 | 31.78588 | -82.73139 | 34742 ft | 406 kts | 313° |
| 2026-05-08 00:04 | 31.80824 | -82.75153 | 35019 ft | 404 kts | 313° |
| 2026-05-08 00:05 | 31.83056 | -82.77164 | 35300 ft | 403 kts | 312° |
| 2026-05-08 00:05 | 31.85276 | -82.79165 | 35584 ft | 402 kts | 312° |
| 2026-05-08 00:05 | 31.87488 | -82.81159 | 35868 ft | 400 kts | 312° |
| 2026-05-08 00:05 | 31.89691 | -82.83148 | 36122 ft | 399 kts | 312° |
| 2026-05-08 00:06 | 31.91890 | -82.85134 | 36380 ft | 398 kts | 312° |
| 2026-05-08 00:06 | 31.94078 | -82.87112 | 36631 ft | 396 kts | 312° |
| 2026-05-08 00:06 | 31.96263 | -82.89087 | 36875 ft | 395 kts | 312° |
| 2026-05-08 00:06 | 31.98442 | -82.91059 | 37097 ft | 394 kts | 312° |
| 2026-05-08 00:07 | 32.00616 | -82.93027 | 37321 ft | 393 kts | 312° |
| 2026-05-08 00:07 | 32.02777 | -82.94985 | 37546 ft | 392 kts | 312° |
| 2026-05-08 00:07 | 32.04938 | -82.96944 | 37748 ft | 391 kts | 312° |
| 2026-05-08 00:07 | 32.07093 | -82.98898 | 37937 ft | 390 kts | 311° |
| 2026-05-08 00:08 | 32.11395 | -83.02804 | 38020 ft | 389 kts | 311° |
| 2026-05-08 00:08 | 32.15650 | -83.06671 | 38015 ft | 389 kts | 311° |
| 2026-05-08 00:09 | 32.19930 | -83.10567 | 38011 ft | 389 kts | 311° |
| 2026-05-08 00:09 | 32.24212 | -83.14468 | 38010 ft | 389 kts | 311° |
| 2026-05-08 00:10 | 32.28490 | -83.18370 | 38003 ft | 388 kts | 311° |
| 2026-05-08 00:10 | 32.32768 | -83.22277 | 38003 ft | 388 kts | 311° |
| 2026-05-08 00:11 | 32.37040 | -83.26183 | 38006 ft | 388 kts | 311° |
| 2026-05-08 00:11 | 32.41314 | -83.30095 | 38006 ft | 388 kts | 311° |
| 2026-05-08 00:12 | 32.45552 | -83.33979 | 38002 ft | 388 kts | 311° |
| 2026-05-08 00:12 | 32.49814 | -83.37890 | 38004 ft | 387 kts | 311° |
| 2026-05-08 00:13 | 32.54069 | -83.41800 | 37999 ft | 388 kts | 310° |
| 2026-05-08 00:13 | 32.58369 | -83.45763 | 38001 ft | 395 kts | 310° |
| 2026-05-08 00:14 | 32.62752 | -83.49804 | 37995 ft | 402 kts | 311° |
| 2026-05-08 00:14 | 32.67191 | -83.53896 | 37995 ft | 406 kts | 311° |
| 2026-05-08 00:15 | 32.71666 | -83.58023 | 38017 ft | 407 kts | 311° |
| 2026-05-08 00:15 | 32.76126 | -83.62142 | 38017 ft | 406 kts | 311° |
| 2026-05-08 00:16 | 32.80574 | -83.66261 | 38013 ft | 405 kts | 310° |
| 2026-05-08 00:16 | 32.85015 | -83.70377 | 38013 ft | 404 kts | 310° |
| 2026-05-08 00:17 | 32.89443 | -83.74488 | 38013 ft | 404 kts | 310° |
| 2026-05-08 00:17 | 32.93867 | -83.78602 | 38012 ft | 403 kts | 310° |
| 2026-05-08 00:18 | 32.98277 | -83.82707 | 38012 ft | 403 kts | 310° |
| 2026-05-08 00:18 | 33.02695 | -83.86824 | 38016 ft | 403 kts | 310° |
| 2026-05-08 00:19 | 33.07073 | -83.90909 | 38012 ft | 402 kts | 310° |
| 2026-05-08 00:19 | 33.11477 | -83.95025 | 38019 ft | 402 kts | 310° |
| 2026-05-08 00:20 | 33.15880 | -83.99144 | 38022 ft | 402 kts | 310° |
| 2026-05-08 00:20 | 33.20277 | -84.03264 | 38036 ft | 402 kts | 310° |
| 2026-05-08 00:21 | 33.24672 | -84.07388 | 38047 ft | 402 kts | 310° |
| 2026-05-08 00:21 | 33.29069 | -84.11517 | 38062 ft | 401 kts | 310° |
| 2026-05-08 00:22 | 33.33451 | -84.15637 | 38074 ft | 400 kts | 310° |
| 2026-05-08 00:22 | 33.37824 | -84.19755 | 38090 ft | 400 kts | 310° |
| 2026-05-08 00:23 | 33.42186 | -84.23869 | 38089 ft | 399 kts | 310° |
| 2026-05-08 00:23 | 33.46541 | -84.27982 | 38090 ft | 399 kts | 310° |
| 2026-05-08 00:24 | 33.50889 | -84.32092 | 38084 ft | 398 kts | 310° |
| 2026-05-08 00:24 | 33.55194 | -84.36168 | 38073 ft | 397 kts | 310° |
| 2026-05-08 00:25 | 33.59584 | -84.40206 | 38074 ft | 403 kts | 314° |
| 2026-05-08 00:25 | 33.64686 | -84.43366 | 38073 ft | 425 kts | 326° |
| 2026-05-08 00:26 | 33.67542 | -84.44456 | 38071 ft | 437 kts | 332° |
| 2026-05-08 00:26 | 33.70554 | -84.45192 | 38074 ft | 445 kts | 335° |
| 2026-05-08 00:26 | 33.76640 | -84.46515 | 38071 ft | 444 kts | 335° |
| 2026-05-08 00:27 | 33.82715 | -84.47856 | 38072 ft | 444 kts | 335° |
| 2026-05-08 00:27 | 33.88792 | -84.49198 | 38058 ft | 444 kts | 335° |
| 2026-05-08 00:28 | 33.94876 | -84.50543 | 38053 ft | 445 kts | 335° |
| 2026-05-08 00:28 | 34.00967 | -84.51890 | 38095 ft | 445 kts | 335° |
| 2026-05-08 00:29 | 34.07173 | -84.52774 | 38095 ft | 457 kts | 340° |
| 2026-05-08 00:29 | 34.13550 | -84.53436 | 38087 ft | 457 kts | 340° |
| 2026-05-08 00:30 | 34.19884 | -84.54102 | 38090 ft | 457 kts | 340° |
| 2026-05-08 00:30 | 34.26160 | -84.54759 | 38098 ft | 455 kts | 340° |
| 2026-05-08 00:31 | 34.32471 | -84.55422 | 38097 ft | 454 kts | 340° |
| 2026-05-08 00:31 | 34.38748 | -84.56081 | 38094 ft | 453 kts | 340° |
| 2026-05-08 00:32 | 34.45025 | -84.56743 | 38086 ft | 452 kts | 340° |
| 2026-05-08 00:32 | 34.51281 | -84.57401 | 38080 ft | 450 kts | 340° |
| 2026-05-08 00:33 | 34.57510 | -84.58058 | 38066 ft | 448 kts | 340° |
| 2026-05-08 00:33 | 34.63701 | -84.58711 | 38073 ft | 446 kts | 340° |
| 2026-05-08 00:34 | 34.69870 | -84.59365 | 38076 ft | 444 kts | 340° |
| 2026-05-08 00:34 | 34.76013 | -84.60017 | 38074 ft | 443 kts | 340° |
| 2026-05-08 00:35 | 34.82160 | -84.60673 | 38071 ft | 444 kts | 340° |
| 2026-05-08 00:35 | 34.88312 | -84.61327 | 38077 ft | 444 kts | 339° |
| 2026-05-08 00:36 | 34.94440 | -84.61980 | 38075 ft | 445 kts | 339° |
| 2026-05-08 00:36 | 35.00612 | -84.62639 | 38063 ft | 445 kts | 340° |
| 2026-05-08 00:37 | 35.06783 | -84.63297 | 38063 ft | 446 kts | 339° |
| 2026-05-08 00:38 | 35.16031 | -84.64286 | 38064 ft | 446 kts | 339° |
| 2026-05-08 00:38 | 35.22218 | -84.64952 | 38057 ft | 446 kts | 339° |
| 2026-05-08 00:39 | 35.28404 | -84.65615 | 38069 ft | 446 kts | 339° |
| 2026-05-08 00:39 | 35.34590 | -84.66279 | 38103 ft | 446 kts | 339° |
| 2026-05-08 00:40 | 35.40773 | -84.66945 | 38103 ft | 446 kts | 339° |
| 2026-05-08 00:40 | 35.46947 | -84.67612 | 38101 ft | 445 kts | 339° |
| 2026-05-08 00:41 | 35.53115 | -84.68278 | 38090 ft | 445 kts | 338° |
| 2026-05-08 00:41 | 35.59276 | -84.68944 | 38092 ft | 445 kts | 338° |
| 2026-05-08 00:42 | 35.65437 | -84.69612 | 38085 ft | 444 kts | 338° |
| 2026-05-08 00:42 | 35.71594 | -84.70281 | 38089 ft | 444 kts | 338° |
| 2026-05-08 00:43 | 35.77742 | -84.70949 | 38100 ft | 443 kts | 338° |
| 2026-05-08 00:43 | 35.83839 | -84.71613 | 38100 ft | 443 kts | 338° |
| 2026-05-08 00:44 | 35.89978 | -84.72284 | 38106 ft | 443 kts | 338° |
| 2026-05-08 00:44 | 35.96105 | -84.72952 | 38102 ft | 442 kts | 338° |
| 2026-05-08 00:45 | 36.01200 | -84.73510 | 38096 ft | 442 kts | 338° |
| 2026-05-08 00:45 | 36.07308 | -84.74178 | 38100 ft | 441 kts | 338° |
| 2026-05-08 00:46 | 36.13417 | -84.74851 | 38098 ft | 441 kts | 338° |
| 2026-05-08 00:46 | 36.19524 | -84.75522 | 38098 ft | 441 kts | 338° |
| 2026-05-08 00:47 | 36.25624 | -84.76193 | 38099 ft | 439 kts | 338° |
| 2026-05-08 00:47 | 36.31724 | -84.76867 | 38105 ft | 440 kts | 338° |
| 2026-05-08 00:48 | 36.37814 | -84.77539 | 38106 ft | 440 kts | 338° |
| 2026-05-08 00:48 | 36.43982 | -84.77994 | 38104 ft | 455 kts | 343° |
| 2026-05-08 00:49 | 36.50330 | -84.77790 | 38105 ft | 456 kts | 344° |
| 2026-05-08 00:49 | 36.56662 | -84.77609 | 38105 ft | 455 kts | 344° |
| 2026-05-08 00:50 | 36.62948 | -84.77431 | 38105 ft | 455 kts | 344° |
| 2026-05-08 00:50 | 36.69279 | -84.77249 | 38124 ft | 455 kts | 344° |
| 2026-05-08 00:51 | 36.75613 | -84.77063 | 38130 ft | 456 kts | 344° |
| 2026-05-08 00:51 | 36.81942 | -84.76876 | 38128 ft | 454 kts | 343° |
| 2026-05-08 00:52 | 36.88268 | -84.76693 | 38126 ft | 455 kts | 344° |
| 2026-05-08 00:52 | 36.94596 | -84.76508 | 38127 ft | 454 kts | 344° |
| 2026-05-08 00:53 | 37.00919 | -84.76322 | 38097 ft | 453 kts | 344° |
| 2026-05-08 00:53 | 37.07227 | -84.76137 | 38096 ft | 453 kts | 344° |
| 2026-05-08 00:54 | 37.13531 | -84.75953 | 38097 ft | 453 kts | 344° |
| 2026-05-08 00:54 | 37.19789 | -84.75768 | 38101 ft | 453 kts | 344° |
| 2026-05-08 00:55 | 37.26085 | -84.75581 | 38107 ft | 452 kts | 344° |
| 2026-05-08 00:55 | 37.32372 | -84.75398 | 38121 ft | 452 kts | 344° |
| 2026-05-08 00:56 | 37.38666 | -84.75199 | 38122 ft | 452 kts | 344° |
| 2026-05-08 00:56 | 37.44956 | -84.74990 | 38125 ft | 451 kts | 344° |
| 2026-05-08 00:57 | 37.51242 | -84.74785 | 38129 ft | 452 kts | 344° |
| 2026-05-08 00:57 | 37.57543 | -84.74581 | 38130 ft | 453 kts | 344° |
| 2026-05-08 00:58 | 37.63842 | -84.74374 | 38128 ft | 453 kts | 345° |
| 2026-05-08 00:58 | 37.70145 | -84.74168 | 38131 ft | 453 kts | 345° |
| 2026-05-08 00:59 | 37.76454 | -84.73967 | 38123 ft | 453 kts | 345° |
| 2026-05-08 00:59 | 37.82767 | -84.73776 | 38108 ft | 454 kts | 345° |
| 2026-05-08 01:00 | 37.89093 | -84.73583 | 38102 ft | 455 kts | 345° |
| 2026-05-08 01:00 | 37.95423 | -84.73387 | 38103 ft | 455 kts | 345° |
| 2026-05-08 01:01 | 38.01721 | -84.73192 | 38104 ft | 456 kts | 345° |
| 2026-05-08 01:01 | 38.08066 | -84.72995 | 38110 ft | 457 kts | 346° |
| 2026-05-08 01:02 | 38.14419 | -84.72797 | 38115 ft | 457 kts | 346° |
| 2026-05-08 01:02 | 38.20785 | -84.72599 | 38112 ft | 458 kts | 346° |
| 2026-05-08 01:03 | 38.27154 | -84.72400 | 38105 ft | 458 kts | 346° |
| 2026-05-08 01:03 | 38.33535 | -84.72200 | 38110 ft | 459 kts | 346° |
| 2026-05-08 01:04 | 38.39918 | -84.71999 | 38107 ft | 459 kts | 346° |
| 2026-05-08 01:04 | 38.46165 | -84.72377 | 38106 ft | 440 kts | 336° |
| 2026-05-08 01:05 | 38.51997 | -84.74076 | 38103 ft | 421 kts | 328° |
| 2026-05-08 01:05 | 38.57464 | -84.76580 | 38095 ft | 418 kts | 326° |
| 2026-05-08 01:06 | 38.62898 | -84.79078 | 38101 ft | 417 kts | 326° |
| 2026-05-08 01:06 | 38.68361 | -84.81605 | 38096 ft | 418 kts | 326° |
| 2026-05-08 01:07 | 38.73822 | -84.84142 | 38100 ft | 418 kts | 326° |
| 2026-05-08 01:07 | 38.79289 | -84.86687 | 38096 ft | 418 kts | 326° |
| 2026-05-08 01:08 | 38.84745 | -84.89230 | 38098 ft | 418 kts | 326° |
| 2026-05-08 01:08 | 38.90207 | -84.91781 | 38097 ft | 417 kts | 326° |
| 2026-05-08 01:09 | 38.95666 | -84.94335 | 38094 ft | 418 kts | 326° |
| 2026-05-08 01:09 | 39.01128 | -84.96892 | 38095 ft | 418 kts | 326° |
| 2026-05-08 01:10 | 39.06587 | -84.99452 | 38097 ft | 418 kts | 326° |
| 2026-05-08 01:10 | 39.12044 | -85.02015 | 38090 ft | 418 kts | 326° |
| 2026-05-08 01:11 | 39.17509 | -85.04588 | 38089 ft | 418 kts | 326° |
| 2026-05-08 01:11 | 39.22977 | -85.07165 | 38089 ft | 418 kts | 326° |
| 2026-05-08 01:12 | 39.28444 | -85.09746 | 38094 ft | 419 kts | 326° |
| 2026-05-08 01:12 | 39.33917 | -85.12335 | 38084 ft | 419 kts | 326° |
| 2026-05-08 01:13 | 39.39395 | -85.14929 | 38087 ft | 420 kts | 326° |
| 2026-05-08 01:13 | 39.44882 | -85.17532 | 38090 ft | 421 kts | 326° |
| 2026-05-08 01:14 | 39.50379 | -85.20142 | 38091 ft | 421 kts | 327° |
| 2026-05-08 01:14 | 39.55883 | -85.22761 | 38091 ft | 421 kts | 327° |
| 2026-05-08 01:15 | 39.61390 | -85.25386 | 38091 ft | 422 kts | 327° |
| 2026-05-08 01:15 | 39.66912 | -85.28024 | 38081 ft | 424 kts | 327° |
| 2026-05-08 01:16 | 39.72448 | -85.30672 | 38077 ft | 424 kts | 327° |
| 2026-05-08 01:16 | 39.77956 | -85.33310 | 38072 ft | 425 kts | 327° |
| 2026-05-08 01:17 | 39.83509 | -85.35975 | 38069 ft | 426 kts | 328° |
| 2026-05-08 01:17 | 39.89075 | -85.38651 | 38071 ft | 427 kts | 328° |
| 2026-05-08 01:18 | 39.94651 | -85.41336 | 38064 ft | 427 kts | 328° |
| 2026-05-08 01:18 | 40.00233 | -85.44029 | 38074 ft | 428 kts | 328° |
| 2026-05-08 01:19 | 40.05825 | -85.46732 | 38076 ft | 429 kts | 328° |
| 2026-05-08 01:19 | 40.11422 | -85.49441 | 38071 ft | 429 kts | 328° |
| 2026-05-08 01:20 | 40.17024 | -85.52159 | 38073 ft | 430 kts | 328° |
| 2026-05-08 01:20 | 40.22632 | -85.54883 | 38064 ft | 430 kts | 328° |
| 2026-05-08 01:21 | 40.28242 | -85.57613 | 38063 ft | 430 kts | 329° |
| 2026-05-08 01:21 | 40.33856 | -85.60351 | 38059 ft | 431 kts | 329° |
| 2026-05-08 01:22 | 40.39470 | -85.63092 | 38056 ft | 431 kts | 329° |
| 2026-05-08 01:22 | 40.45085 | -85.65840 | 38056 ft | 430 kts | 329° |
| 2026-05-08 01:23 | 40.50749 | -85.68456 | 38055 ft | 437 kts | 334° |
| 2026-05-08 01:23 | 40.56616 | -85.70586 | 38055 ft | 437 kts | 333° |
| 2026-05-08 01:24 | 40.62470 | -85.72740 | 38058 ft | 437 kts | 334° |
| 2026-05-08 01:24 | 40.68323 | -85.74895 | 38061 ft | 437 kts | 334° |
| 2026-05-08 01:25 | 40.74171 | -85.77050 | 38066 ft | 436 kts | 334° |
| 2026-05-08 01:25 | 40.79916 | -85.79347 | 38063 ft | 427 kts | 327° |
| 2026-05-08 01:25 | 40.82563 | -85.81116 | 38072 ft | 416 kts | 319° |
| 2026-05-08 01:26 | 40.84861 | -85.83278 | 38071 ft | 407 kts | 312° |
| 2026-05-08 01:26 | 40.88589 | -85.88709 | 38061 ft | 394 kts | 298° |
| 2026-05-08 01:27 | 40.91032 | -85.95103 | 38042 ft | 389 kts | 290° |
| 2026-05-08 01:27 | 40.93171 | -86.01668 | 38036 ft | 389 kts | 290° |
| 2026-05-08 01:28 | 40.95310 | -86.08237 | 38030 ft | 389 kts | 290° |
| 2026-05-08 01:28 | 40.97438 | -86.14811 | 38024 ft | 389 kts | 290° |
| 2026-05-08 01:29 | 40.99560 | -86.21387 | 38025 ft | 388 kts | 290° |
| 2026-05-08 01:29 | 41.01678 | -86.27967 | 38027 ft | 388 kts | 290° |
| 2026-05-08 01:30 | 41.03792 | -86.34549 | 38029 ft | 388 kts | 290° |
| 2026-05-08 01:30 | 41.05904 | -86.41140 | 38033 ft | 388 kts | 290° |
| 2026-05-08 01:31 | 41.08009 | -86.47727 | 38032 ft | 388 kts | 290° |
| 2026-05-08 01:31 | 41.10113 | -86.54326 | 38024 ft | 388 kts | 290° |
| 2026-05-08 01:32 | 41.12221 | -86.60913 | 38022 ft | 389 kts | 291° |
| 2026-05-08 01:32 | 41.14778 | -86.67272 | 38017 ft | 392 kts | 295° |
| 2026-05-08 01:33 | 41.17427 | -86.73588 | 38015 ft | 392 kts | 295° |
| 2026-05-08 01:33 | 41.20071 | -86.79916 | 38014 ft | 392 kts | 295° |
| 2026-05-08 01:34 | 41.22713 | -86.86250 | 38014 ft | 392 kts | 295° |
| 2026-05-08 01:34 | 41.24910 | -86.91524 | 38018 ft | 392 kts | 295° |
| 2026-05-08 01:35 | 41.27515 | -86.97784 | 37472 ft | 382 kts | 295° |
| 2026-05-08 01:35 | 41.28794 | -87.00865 | 36794 ft | 380 kts | 295° |
| 2026-05-08 01:35 | 41.30475 | -87.04923 | 35853 ft | 377 kts | 295° |
| 2026-05-08 01:35 | 41.31737 | -87.07970 | 35150 ft | 375 kts | 295° |
| 2026-05-08 01:36 | 41.32584 | -87.10018 | 34681 ft | 374 kts | 295° |
| 2026-05-08 01:36 | 41.33835 | -87.13044 | 33989 ft | 372 kts | 295° |
| 2026-05-08 01:36 | 41.35139 | -87.16012 | 33103 ft | 373 kts | 298° |
| 2026-05-08 01:36 | 41.36663 | -87.18843 | 32113 ft | 379 kts | 303° |
| 2026-05-08 01:37 | 41.38406 | -87.21506 | 31124 ft | 385 kts | 309° |
| 2026-05-08 01:37 | 41.40354 | -87.23977 | 30195 ft | 389 kts | 313° |
| 2026-05-08 01:37 | 41.42378 | -87.26381 | 29148 ft | 390 kts | 313° |
| 2026-05-08 01:37 | 41.44384 | -87.28781 | 28453 ft | 384 kts | 313° |
| 2026-05-08 01:38 | 41.46341 | -87.31123 | 27976 ft | 374 kts | 313° |
| 2026-05-08 01:38 | 41.48259 | -87.33424 | 27380 ft | 367 kts | 313° |
| 2026-05-08 01:38 | 41.50164 | -87.35639 | 26787 ft | 360 kts | 316° |
| 2026-05-08 01:38 | 41.52185 | -87.37574 | 26199 ft | 354 kts | 321° |
| 2026-05-08 01:39 | 41.54214 | -87.39370 | 25623 ft | 346 kts | 320° |
| 2026-05-08 01:39 | 41.56196 | -87.41147 | 25047 ft | 342 kts | 320° |
| 2026-05-08 01:39 | 41.58161 | -87.42916 | 24480 ft | 339 kts | 320° |
| 2026-05-08 01:39 | 41.60109 | -87.44671 | 23888 ft | 337 kts | 321° |
| 2026-05-08 01:40 | 41.62049 | -87.46418 | 23322 ft | 335 kts | 321° |
| 2026-05-08 01:40 | 41.63944 | -87.48122 | 22734 ft | 331 kts | 321° |
| 2026-05-08 01:40 | 41.65803 | -87.49883 | 22186 ft | 324 kts | 317° |
| 2026-05-08 01:40 | 41.67512 | -87.51815 | 21611 ft | 320 kts | 315° |
| 2026-05-08 01:41 | 41.69197 | -87.53741 | 21074 ft | 317 kts | 315° |
| 2026-05-08 01:41 | 41.70871 | -87.55645 | 20500 ft | 315 kts | 315° |
| 2026-05-08 01:41 | 41.72535 | -87.57537 | 19945 ft | 313 kts | 315° |
| 2026-05-08 01:41 | 41.74195 | -87.59423 | 19394 ft | 312 kts | 315° |
| 2026-05-08 01:42 | 41.75859 | -87.61287 | 18827 ft | 312 kts | 316° |
| 2026-05-08 01:42 | 41.77531 | -87.63154 | 18272 ft | 313 kts | 316° |
| 2026-05-08 01:42 | 41.79206 | -87.65023 | 17648 ft | 313 kts | 316° |
| 2026-05-08 01:42 | 41.80870 | -87.66884 | 17094 ft | 310 kts | 316° |
| 2026-05-08 01:43 | 41.82462 | -87.68811 | 16529 ft | 307 kts | 310° |
| 2026-05-08 01:43 | 41.83857 | -87.70960 | 15973 ft | 304 kts | 304° |
| 2026-05-08 01:43 | 41.85050 | -87.73285 | 15426 ft | 302 kts | 301° |
| 2026-05-08 01:43 | 41.86194 | -87.75642 | 14860 ft | 301 kts | 301° |
| 2026-05-08 01:44 | 41.87310 | -87.78015 | 14318 ft | 300 kts | 296° |
| 2026-05-08 01:44 | 41.88083 | -87.80598 | 13838 ft | 300 kts | 285° |
| 2026-05-08 01:44 | 41.88437 | -87.83397 | 13147 ft | 308 kts | 274° |
| 2026-05-08 01:44 | 41.88443 | -87.86265 | 12452 ft | 305 kts | 271° |
| 2026-05-08 01:45 | 41.88436 | -87.89078 | 11771 ft | 298 kts | 272° |
| 2026-05-08 01:45 | 41.88436 | -87.91833 | 11105 ft | 292 kts | 272° |
| 2026-05-08 01:45 | 41.88437 | -87.94533 | 10453 ft | 287 kts | 272° |
| 2026-05-08 01:45 | 41.88439 | -87.97191 | 9813 ft | 282 kts | 272° |
| 2026-05-08 01:46 | 41.88438 | -87.99799 | 9118 ft | 279 kts | 271° |
| 2026-05-08 01:46 | 41.88377 | -88.02389 | 8432 ft | 276 kts | 269° |
| 2026-05-08 01:46 | 41.88280 | -88.04947 | 7757 ft | 273 kts | 269° |
| 2026-05-08 01:46 | 41.88178 | -88.07488 | 7087 ft | 271 kts | 269° |
| 2026-05-08 01:47 | 41.88083 | -88.10003 | 6448 ft | 269 kts | 269° |
| 2026-05-08 01:47 | 41.87994 | -88.12472 | 5776 ft | 268 kts | 269° |
| 2026-05-08 01:47 | 41.87915 | -88.14992 | 5105 ft | 266 kts | 271° |
| 2026-05-08 01:48 | 41.89539 | -88.19073 | 4370 ft | 249 kts | 326° |
| 2026-05-08 01:48 | 41.91145 | -88.19714 | 4245 ft | 239 kts | 354° |
| 2026-05-08 01:48 | 41.92751 | -88.19695 | 4134 ft | 222 kts | 356° |
| 2026-05-08 01:48 | 41.94239 | -88.19568 | 4006 ft | 209 kts | 8° |
| 2026-05-08 01:49 | 41.95485 | -88.18671 | 3919 ft | 205 kts | 43° |
| 2026-05-08 01:49 | 41.96184 | -88.17084 | 3859 ft | 194 kts | 70° |
| 2026-05-08 01:49 | 41.96446 | -88.15363 | 3766 ft | 186 kts | 83° |
| 2026-05-08 01:49 | 41.96520 | -88.13626 | 3619 ft | 184 kts | 88° |
| 2026-05-08 01:50 | 41.96534 | -88.11903 | 3418 ft | 188 kts | 90° |
| 2026-05-08 01:50 | 41.96538 | -88.10153 | 3179 ft | 185 kts | 90° |
| 2026-05-08 01:50 | 41.96542 | -88.08439 | 2941 ft | 185 kts | 90° |
| 2026-05-08 01:50 | 41.96545 | -88.06737 | 2706 ft | 176 kts | 90° |
| 2026-05-08 01:51 | 41.96548 | -88.05165 | 2467 ft | 161 kts | 91° |
| 2026-05-08 01:51 | 41.96551 | -88.03702 | 2255 ft | 155 kts | 90° |
| 2026-05-08 01:51 | 41.96553 | -88.02253 | 2044 ft | 154 kts | 91° |
| 2026-05-08 01:51 | 41.96557 | -88.00822 | 1840 ft | 153 kts | 90° |
| 2026-05-08 01:52 | 41.96559 | -87.99395 | 1633 ft | 151 kts | 91° |
| 2026-05-08 01:52 | 41.96561 | -87.98019 | 1426 ft | 145 kts | 91° |
| 2026-05-08 01:52 | 41.96564 | -87.96678 | 1204 ft | 143 kts | 91° |
| 2026-05-08 01:52 | 41.96571 | -87.95349 | 1037 ft | 143 kts | 90° |
| 2026-05-08 01:53 | 41.96569 | -87.94014 | 838 ft | 142 kts | 92° |
| 2026-05-08 01:53 | 41.96572 | -87.92688 | 688 ft | 140 kts | 91° |
| 2026-05-08 01:53 | 41.96570 | -87.91479 | 668 ft | 112 kts | 91° |
| 2026-05-08 01:53 | 41.96575 | -87.90751 | 669 ft | 41 kts | 84° |
| 2026-05-08 01:54 | 41.96646 | -87.90418 | 667 ft | 26 kts | 61° |
| 2026-05-08 01:54 | 41.96733 | -87.90194 | 669 ft | 28 kts | 72° |
| 2026-05-08 01:54 | 41.96740 | -87.89928 | 669 ft | 29 kts | 90° |
| 2026-05-08 01:54 | 41.96741 | -87.89653 | 669 ft | 30 kts | 90° |
| 2026-05-08 01:55 | 41.96740 | -87.89370 | 669 ft | 31 kts | 90° |
| 2026-05-08 01:55 | 41.96767 | -87.89152 | 668 ft | 16 kts | 55° |
| 2026-05-08 01:55 | 41.96859 | -87.89066 | 665 ft | 18 kts | 356° |
| 2026-05-08 01:55 | 41.96994 | -87.89069 | 667 ft | 20 kts | 360° |
| 2026-05-08 01:56 | 41.97130 | -87.89070 | 669 ft | 14 kts | 360° |
| 2026-05-08 01:56 | 41.97197 | -87.89001 | 670 ft | 15 kts | 89° |
| 2026-05-08 01:56 | 41.97218 | -87.88927 | 669 ft | 8 kts | 15° |
| 2026-05-08 01:56 | 41.97268 | -87.88889 | 670 ft | 10 kts | 74° |
| 2026-05-08 01:57 | 41.97270 | -87.88827 | 670 ft | 0 kts | 90° |
| 2026-05-08 01:57 | 41.97270 | -87.88817 | 670 ft | 0 kts | 90° |
| 2026-05-08 01:57 | 41.97270 | -87.88816 | 670 ft | 1 kts | 90° |
| 2026-05-08 01:57 | 41.97270 | -87.88813 | 670 ft | 0 kts | 90° |
| 2026-05-08 01:58 | 41.97270 | -87.88796 | 670 ft | 7 kts | 89° |
| 2026-05-08 01:58 | 41.97270 | -87.88650 | 670 ft | 21 kts | 90° |
| 2026-05-08 01:58 | 41.97272 | -87.88593 | 670 ft | 2 kts | 87° |
| 2026-05-08 01:59 | 41.97275 | -87.88572 | 670 ft | 0 kts | 60° |
| 2026-05-08 01:59 | 41.97279 | -87.88572 | 668 ft | 2 kts | 27° |
| 2026-05-08 01:59 | 41.97325 | -87.88572 | 670 ft | 7 kts | 358° |
| 2026-05-08 01:59 | 41.97350 | -87.88572 | 670 ft | 5 kts | 1° |
| 2026-05-08 02:00 | 41.97354 | -87.88572 | 670 ft | 0 kts | 1° |